Time;durP1;ratioP1;P1;durP2;ratioP2;P2;SDS_P1;SDS_P2;PMS_P1;PMS_P2;Temp;Humidity;BMP_temperature;BMP_pressure;BME280_temperature;BME280_humidity;BME280_pressure;Samples;Min_cycle;Max_cycle;Signal;HPM_P1;HPM_P2
2023/09/07 00:02:04;;;;;;;;;;;;;;;27.99;28.72;101983.59;5091831;28;19916;-68
2023/09/07 00:04:29;;;;;;;;;;;;;;;27.96;28.51;101981.38;5093588;28;20345;-68
2023/09/07 00:06:54;;;;;;;;;;;;;;;27.96;28.76;101975.84;5093820;28;20272;-67
2023/09/07 00:09:21;;;;;;;;;;;;;;;27.92;28.95;101983.03;5093809;28;19949;-68
2023/09/07 00:11:47;;;;;;;;;;;;;;;27.94;28.73;101978.06;5093934;28;20369;-68
2023/09/07 00:14:12;;;;;;;;;;;;;;;27.96;28.65;101983.31;5094136;28;19938;-68
2023/09/07 00:16:38;;;;;;;;;;;;;;;27.93;28.85;101981.91;5094112;28;19923;-67
2023/09/07 00:19:03;;;;;;;;;;;;;;;27.97;29.13;101988.56;5093894;28;19912;-67
2023/09/07 00:21:29;;;;;;;;;;;;;;;27.96;28.91;101983.31;5094236;28;20013;-67
2023/09/07 00:23:55;;;;;;;;;;;;;;;27.96;29.03;101978.59;5093993;28;20269;-68
2023/09/07 00:26:20;;;;;;;;;;;;;;;27.96;29.29;101986.88;5094345;28;19912;-67
2023/09/07 00:28:45;;;;;;;;;;;;;;;28.03;28.99;101988.53;5093522;28;19919;-68
2023/09/07 00:31:10;;;;;;;;;;;;;;;28.03;28.85;101994.06;5093560;28;19912;-67
2023/09/07 00:33:36;;;;;;;;;;;;;;;28.04;28.85;101990.22;5094035;28;19956;-67
2023/09/07 00:36:01;;;;;;;;;;;;;;;28.09;28.77;101990.22;5093404;28;20327;-67
2023/09/07 00:38:27;;;;;;;;;;;;;;;28.09;28.91;101981.94;5093667;28;19913;-68
2023/09/07 00:40:52;;;;;;;;;;;;;;;28.06;29.18;101988.81;5093398;28;19916;-68
2023/09/07 00:43:17;;;;;;;;;;;;;;;28.08;29.10;101985.78;5093284;28;19970;-68
2023/09/07 00:45:43;;;;;;;;;;;;;;;28.09;28.99;101987.47;5093513;28;20383;-69
2023/09/07 00:48:08;;;;;;;;;;;;;;;28.12;29.11;101989.66;5093017;28;20352;-68
2023/09/07 00:50:34;;;;;;;;;;;;;;;28.06;29.09;101983.31;5093003;28;19912;-69
2023/09/07 00:52:59;;;;;;;;;;;;;;;28.11;28.99;101979.72;5093269;28;19998;-67
2023/09/07 00:55:25;;;;;;;;;;;;;;;28.05;29.33;101984.41;5098874;28;19918;-67
2023/09/07 00:57:50;;;;;;;;;;;;;;;28.04;28.96;101990.22;5092244;28;19912;-67
2023/09/07 01:00:16;;;;;;;;;;;;;;;28.05;29.38;101983.59;5093010;28;19923;-68
2023/09/07 01:02:44;;;;;;;;;;;;;;;28.03;29.49;101988.53;5080168;28;19975;-67
2023/09/07 01:05:11;;;;;;;;;;;;;;;27.99;29.43;101980.81;5074124;28;19921;-67
2023/09/07 01:07:45;;;;;;;;;;;;;;;28.02;29.25;101978.63;5088885;28;19959;-68
2023/09/07 01:10:10;;;;;;;;;;;;;;;28.05;29.06;101975.31;5096719;28;19924;-69
2023/09/07 01:12:39;;;;;;;;;;;;;;;28.03;29.49;101977.50;5097410;28;19916;-68
2023/09/07 01:15:04;;;;;;;;;;;;;;;28.03;29.68;101972.81;5096398;28;19916;-68
2023/09/07 01:17:30;;;;;;;;;;;;;;;28.03;29.54;101969.22;5088843;28;20012;-68
2023/09/07 01:19:57;;;;;;;;;;;;;;;28.03;29.43;101961.78;5091074;28;19919;-67
2023/09/07 01:22:22;;;;;;;;;;;;;;;28.02;29.50;101957.34;5093713;28;19916;-68
2023/09/07 01:24:48;;;;;;;;;;;;;;;28.05;29.33;101958.75;5093802;28;19927;-67
2023/09/07 01:27:14;;;;;;;;;;;;;;;28.05;29.41;101959.56;5093483;28;19912;-67
2023/09/07 01:29:40;;;;;;;;;;;;;;;28.07;29.16;101960.13;5093362;28;19912;-67
2023/09/07 01:32:05;;;;;;;;;;;;;;;28.08;29.21;101955.41;5093471;28;20395;-67
2023/09/07 01:34:31;;;;;;;;;;;;;;;28.11;29.47;101957.63;5091959;28;20368;-67
2023/09/07 01:36:56;;;;;;;;;;;;;;;28.10;29.55;101967.00;5092538;28;19919;-67
2023/09/07 01:39:22;;;;;;;;;;;;;;;28.09;29.10;101968.13;5093414;28;20003;-67
2023/09/07 01:41:47;;;;;;;;;;;;;;;28.09;29.14;101955.13;5093384;28;20132;-67
2023/09/07 01:44:12;;;;;;;;;;;;;;;28.06;29.24;101966.72;5091563;28;20400;-67
2023/09/07 01:46:42;;;;;;;;;;;;;;;28.08;29.47;101956.25;5091707;28;19919;-66
2023/09/07 01:49:07;;;;;;;;;;;;;;;28.09;29.42;101977.25;5092313;28;19998;-66
2023/09/07 01:51:33;;;;;;;;;;;;;;;28.07;29.66;101975.88;5092162;28;19919;-66
2023/09/07 01:53:58;;;;;;;;;;;;;;;28.09;29.78;101987.47;5091917;28;20910;-66
2023/09/07 01:56:24;;;;;;;;;;;;;;;28.10;29.28;101978.06;5106856;28;20015;-66
2023/09/07 01:58:49;;;;;;;;;;;;;;;28.12;29.34;101973.09;5113203;28;19965;-66
2023/09/07 02:01:24;;;;;;;;;;;;;;;28.11;29.61;101960.41;5112522;28;19920;-66
2023/09/07 02:03:50;;;;;;;;;;;;;;;28.09;29.56;101966.19;5092717;28;19999;-67
2023/09/07 02:06:15;;;;;;;;;;;;;;;28.07;29.67;101964.81;5092953;28;20046;-67
2023/09/07 02:08:40;;;;;;;;;;;;;;;28.09;30.00;101965.38;5092962;28;20015;-67
2023/09/07 02:11:05;;;;;;;;;;;;;;;28.10;29.87;101961.47;5092939;28;19919;-67
2023/09/07 02:13:31;;;;;;;;;;;;;;;28.13;29.84;101961.75;5092791;28;19919;-67
2023/09/07 02:15:56;;;;;;;;;;;;;;;28.08;30.49;101971.97;5092717;28;19912;-67
2023/09/07 02:18:21;;;;;;;;;;;;;;;28.09;30.29;101957.09;5093124;28;20621;-67
2023/09/07 02:20:46;;;;;;;;;;;;;;;27.91;31.04;101962.03;5092711;28;20505;-66
2023/09/07 02:23:12;;;;;;;;;;;;;;;27.71;31.62;101928.81;5092877;28;19912;-66
2023/09/07 02:25:37;;;;;;;;;;;;;;;27.87;31.80;101952.59;5092732;28;20046;-66
2023/09/07 02:28:02;;;;;;;;;;;;;;;27.89;31.85;101953.19;5092229;28;19922;-66
2023/09/07 02:30:28;;;;;;;;;;;;;;;27.89;31.30;101952.34;5092551;28;20019;-66
2023/09/07 02:32:53;;;;;;;;;;;;;;;27.90;30.98;101957.63;5092377;28;20296;-66
2023/09/07 02:35:18;;;;;;;;;;;;;;;27.94;31.29;101957.91;5092338;28;19943;-66
2023/09/07 02:37:43;;;;;;;;;;;;;;;27.89;32.58;101960.63;5092288;28;19927;-67
2023/09/07 02:40:09;;;;;;;;;;;;;;;27.81;31.88;101964.75;5090586;28;19916;-67
2023/09/07 02:42:34;;;;;;;;;;;;;;;27.74;32.82;101955.91;5092543;28;19916;-67
2023/09/07 02:44:59;;;;;;;;;;;;;;;27.71;31.96;101951.75;5092630;28;20246;-67
2023/09/07 02:47:25;;;;;;;;;;;;;;;27.81;31.39;101960.03;5096493;28;19912;-67
2023/09/07 02:49:50;;;;;;;;;;;;;;;27.87;31.07;101952.59;5096959;28;19942;-67
2023/09/07 02:52:15;;;;;;;;;;;;;;;27.86;30.95;101950.09;5096414;28;20372;-67
2023/09/07 02:54:41;;;;;;;;;;;;;;;27.85;30.99;101954.81;5096149;28;20006;-67
2023/09/07 02:57:07;;;;;;;;;;;;;;;27.88;31.13;101950.66;5116498;28;19970;-67
2023/09/07 02:59:32;;;;;;;;;;;;;;;27.92;30.66;101952.66;5106248;28;20397;-67
2023/09/07 03:01:57;;;;;;;;;;;;;;;27.89;31.46;101960.63;5096007;28;19920;-67
2023/09/07 03:04:23;;;;;;;;;;;;;;;27.87;30.93;101954.53;5095934;28;19991;-67
2023/09/07 03:06:48;;;;;;;;;;;;;;;27.84;31.01;101958.69;5096785;28;19965;-68
2023/09/07 03:09:14;;;;;;;;;;;;;;;27.81;31.18;101953.72;5096553;28;20072;-68
2023/09/07 03:11:42;;;;;;;;;;;;;;;27.83;31.65;101953.44;5096243;28;20045;-68
2023/09/07 03:14:07;;;;;;;;;;;;;;;27.81;31.37;101948.19;5096046;28;19965;-68
2023/09/07 03:16:33;;;;;;;;;;;;;;;27.81;31.09;101960.03;5096644;28;19919;-68
2023/09/07 03:18:58;;;;;;;;;;;;;;;27.78;31.16;101949.53;5095981;28;19999;-67
2023/09/07 03:21:29;;;;;;;;;;;;;;;27.79;31.08;101945.69;5096197;28;20376;-66
2023/09/07 03:23:55;;;;;;;;;;;;;;;27.78;30.70;101944.03;5078080;28;19912;-67
2023/09/07 03:26:21;;;;;;;;;;;;;;;27.72;31.39;101944.31;5095816;28;19923;-67
2023/09/07 03:28:46;;;;;;;;;;;;;;;27.67;31.28;101953.38;5096027;28;19912;-67
2023/09/07 03:31:11;;;;;;;;;;;;;;;27.73;30.82;101952.31;5095851;28;19912;-67
2023/09/07 03:33:36;;;;;;;;;;;;;;;27.73;31.23;101954.22;5095636;28;19912;-67
2023/09/07 03:36:03;;;;;;;;;;;;;;;27.68;31.41;101957.00;5095661;28;19916;-66
2023/09/07 03:38:28;;;;;;;;;;;;;;;27.63;31.42;101954.22;5095512;28;20023;-67
2023/09/07 03:40:53;;;;;;;;;;;;;;;27.55;32.05;101952.81;5095258;28;19999;-67
2023/09/07 03:43:19;;;;;;;;;;;;;;;27.48;31.68;101953.06;5095088;28;19912;-67
2023/09/07 03:45:44;;;;;;;;;;;;;;;27.46;31.80;101954.47;5095672;28;19912;-67
2023/09/07 03:48:09;;;;;;;;;;;;;;;27.47;31.55;101951.44;5095645;28;19912;-67
2023/09/07 03:50:35;;;;;;;;;;;;;;;27.50;31.35;101959.16;5095889;28;20276;-67
2023/09/07 03:53:00;;;;;;;;;;;;;;;27.45;31.99;101967.44;5095873;28;19912;-67
2023/09/07 03:55:26;;;;;;;;;;;;;;;27.49;31.55;101956.66;5101469;28;19919;-67
2023/09/07 03:57:51;;;;;;;;;;;;;;;27.38;32.15;101953.88;5094734;28;19916;-67
2023/09/07 04:00:17;;;;;;;;;;;;;;;27.35;32.12;101954.41;5095448;28;19912;-67
2023/09/07 04:02:43;;;;;;;;;;;;;;;27.34;31.68;101957.44;5095053;28;20397;-67
2023/09/07 04:05:10;;;;;;;;;;;;;;;27.38;31.85;101958.56;5095133;28;19970;-67
2023/09/07 04:07:35;;;;;;;;;;;;;;;27.43;31.57;101955.81;5095089;28;19912;-67
2023/09/07 04:10:01;;;;;;;;;;;;;;;27.46;31.42;101951.69;5095155;28;19920;-67
2023/09/07 04:12:27;;;;;;;;;;;;;;;27.52;31.54;101950.59;5095378;28;19941;-67
2023/09/07 04:14:53;;;;;;;;;;;;;;;27.54;31.57;101953.91;5095163;28;20285;-67
2023/09/07 04:17:18;;;;;;;;;;;;;;;27.54;31.47;101949.22;5094931;28;19926;-67
2023/09/07 04:19:43;;;;;;;;;;;;;;;27.52;31.80;101945.09;5094975;28;20287;-67
2023/09/07 04:22:10;;;;;;;;;;;;;;;27.53;31.61;101944.00;5094681;28;19928;-68
2023/09/07 04:24:35;;;;;;;;;;;;;;;27.51;31.96;101949.78;5094978;28;20375;-68
2023/09/07 04:27:01;;;;;;;;;;;;;;;27.49;31.79;101949.22;5094736;28;19916;-68
2023/09/07 04:29:26;;;;;;;;;;;;;;;27.44;31.77;101946.44;5095077;28;19912;-68
2023/09/07 04:31:52;;;;;;;;;;;;;;;27.55;31.46;101939.03;5094725;28;19919;-68
2023/09/07 04:34:17;;;;;;;;;;;;;;;27.36;31.99;101945.03;5093338;28;19922;-68
2023/09/07 04:36:42;;;;;;;;;;;;;;;27.41;31.74;101938.69;5094778;28;19913;-67
2023/09/07 04:39:08;;;;;;;;;;;;;;;27.41;31.85;101941.47;5094277;28;19923;-68
2023/09/07 04:41:33;;;;;;;;;;;;;;;27.45;32.18;101953.63;5094074;28;19966;-67
2023/09/07 04:43:58;;;;;;;;;;;;;;;27.44;31.78;101954.72;5094161;28;19912;-67
2023/09/07 04:46:24;;;;;;;;;;;;;;;27.49;31.65;101956.66;5092757;28;19912;-67
2023/09/07 04:48:49;;;;;;;;;;;;;;;27.21;31.85;101920.97;5094049;28;19912;-67
2023/09/07 04:51:14;;;;;;;;;;;;;;;27.40;32.43;101967.41;5094045;28;19922;-67
2023/09/07 04:53:40;;;;;;;;;;;;;;;27.40;32.10;101959.13;5092343;28;19920;-67
2023/09/07 04:56:06;;;;;;;;;;;;;;;27.47;32.09;101964.38;5093503;28;19912;-66
2023/09/07 04:58:31;;;;;;;;;;;;;;;27.58;31.88;101960.53;5092801;28;19912;-67
2023/09/07 05:01:08;;;;;;;;;;;;;;;27.56;31.78;101962.75;5092881;28;19930;-66
2023/09/07 05:03:34;;;;;;;;;;;;;;;27.57;31.77;101954.19;5077222;28;20038;-67
2023/09/07 05:05:59;;;;;;;;;;;;;;;27.56;31.90;101957.22;5093013;28;20075;-67
2023/09/07 05:08:24;;;;;;;;;;;;;;;27.51;31.78;101947.03;5092565;28;19935;-67
2023/09/07 05:11:00;;;;;;;;;;;;;;;27.47;32.18;101956.94;5093149;28;19957;-67
2023/09/07 05:13:26;;;;;;;;;;;;;;;27.37;32.23;101957.72;5093149;28;20006;-68
2023/09/07 05:15:54;;;;;;;;;;;;;;;27.33;32.82;101964.88;5092742;28;21277;-66
2023/09/07 05:18:19;;;;;;;;;;;;;;;27.33;32.47;101961.31;5093013;28;20010;-66
2023/09/07 05:20:45;;;;;;;;;;;;;;;27.33;32.47;101961.31;5091716;28;19966;-66
2023/09/07 05:23:15;;;;;;;;;;;;;;;27.31;32.58;101963.50;5093270;28;19912;-66
2023/09/07 05:25:45;;;;;;;;;;;;;;;27.33;32.08;101961.31;5093745;28;19923;-67
2023/09/07 05:28:10;;;;;;;;;;;;;;;27.32;32.64;101959.63;5093626;28;19919;-67
2023/09/07 05:30:36;;;;;;;;;;;;;;;27.30;32.73;101954.38;5093745;28;19916;-67
2023/09/07 05:33:01;;;;;;;;;;;;;;;27.44;32.03;101964.94;5093575;28;19912;-68
2023/09/07 05:35:29;;;;;;;;;;;;;;;27.51;31.98;101960.81;5093290;28;19916;-67
2023/09/07 05:37:54;;;;;;;;;;;;;;;27.56;31.98;101949.81;5093634;28;19951;-67
2023/09/07 05:40:19;;;;;;;;;;;;;;;27.54;32.16;101951.16;5093455;28;19955;-68
2023/09/07 05:42:44;;;;;;;;;;;;;;;27.58;32.00;101966.91;5093563;28;19924;-65
2023/09/07 05:45:10;;;;;;;;;;;;;;;27.53;31.64;101960.56;5093361;28;20342;-67
2023/09/07 05:47:35;;;;;;;;;;;;;;;27.53;31.58;101955.84;5092232;28;19978;-67
2023/09/07 05:50:00;;;;;;;;;;;;;;;27.63;31.56;101957.81;5093038;28;19923;-66
2023/09/07 05:52:25;;;;;;;;;;;;;;;27.64;31.63;101958.63;5077483;28;19917;-68
2023/09/07 05:54:51;;;;;;;;;;;;;;;27.54;32.01;101959.44;5085088;28;20046;-66
2023/09/07 05:57:17;;;;;;;;;;;;;;;27.53;31.52;101952.28;5113448;28;19919;-67
2023/09/07 05:59:42;;;;;;;;;;;;;;;27.54;31.89;101962.19;5109772;28;19912;-66
2023/09/07 06:02:07;;;;;;;;;;;;;;;27.59;31.41;101963.03;5084906;28;19927;-67
2023/09/07 06:04:33;;;;;;;;;;;;;;;27.55;31.48;101963.88;5072652;28;19927;-66
2023/09/07 06:06:58;;;;;;;;;;;;;;;27.52;31.79;101967.97;5071525;28;19923;-66
2023/09/07 06:09:24;;;;;;;;;;;;;;;27.50;32.03;101980.41;5072998;28;20379;-66
2023/09/07 06:11:49;;;;;;;;;;;;;;;27.48;31.62;101988.94;5072887;28;19919;-65
2023/09/07 06:14:14;;;;;;;;;;;;;;;27.44;31.95;101981.50;5074401;28;20029;-68
2023/09/07 06:16:39;;;;;;;;;;;;;;;27.47;32.03;101981.78;5091523;28;19912;-69
2023/09/07 06:19:06;;;;;;;;;;;;;;;27.50;31.76;101978.47;5092732;28;20560;-64
2023/09/07 06:21:31;;;;;;;;;;;;;;;27.52;31.63;101980.97;5092242;28;19934;-63
2023/09/07 06:23:57;;;;;;;;;;;;;;;27.45;31.89;101981.22;5092888;28;20574;-63
2023/09/07 06:26:22;;;;;;;;;;;;;;;27.53;32.14;101990.91;5092772;28;19916;-65
2023/09/07 06:28:47;;;;;;;;;;;;;;;27.50;31.63;101992.25;5092695;28;19916;-61
2023/09/07 06:31:12;;;;;;;;;;;;;;;27.60;31.30;101985.97;5092742;28;19919;-64
2023/09/07 06:33:38;;;;;;;;;;;;;;;27.46;32.07;101998.59;5092831;28;19916;-67
2023/09/07 06:36:03;;;;;;;;;;;;;;;27.49;31.66;102003.56;5092965;28;19981;-66
2023/09/07 06:38:28;;;;;;;;;;;;;;;27.35;32.01;102006.00;5092683;28;19912;-65
2023/09/07 06:40:54;;;;;;;;;;;;;;;27.41;32.09;101996.66;5086225;28;19913;-65
2023/09/07 06:43:19;;;;;;;;;;;;;;;27.46;32.14;102001.38;5074944;28;19923;-66
2023/09/07 06:45:44;;;;;;;;;;;;;;;27.61;31.78;101999.47;5091187;28;19916;-66
2023/09/07 06:48:09;;;;;;;;;;;;;;;27.65;32.21;102001.69;5071323;28;19917;-66
2023/09/07 06:50:35;;;;;;;;;;;;;;;27.83;31.59;102008.66;5072240;28;20026;-66
2023/09/07 06:53:00;;;;;;;;;;;;;;;27.87;31.85;102010.59;5072167;28;19919;-66
2023/09/07 06:55:25;;;;;;;;;;;;;;;27.93;31.82;102003.16;5084608;28;19957;-66
2023/09/07 06:57:51;;;;;;;;;;;;;;;28.05;31.90;102005.69;5093125;28;19938;-66
2023/09/07 07:00:16;;;;;;;;;;;;;;;28.05;32.16;102002.94;5092412;28;20292;-66
2023/09/07 07:02:41;;;;;;;;;;;;;;;28.07;32.01;102004.31;5079367;28;19916;-66
2023/09/07 07:05:08;;;;;;;;;;;;;;;27.86;32.73;102014.47;5072074;28;19989;-65
2023/09/07 07:07:34;;;;;;;;;;;;;;;27.89;32.53;102022.22;5072231;28;20313;-66
2023/09/07 07:09:59;;;;;;;;;;;;;;;27.90;31.94;102009.25;5071963;28;19916;-67
2023/09/07 07:12:26;;;;;;;;;;;;;;;27.78;32.81;102015.81;5089644;28;19995;-67
2023/09/07 07:14:51;;;;;;;;;;;;;;;27.81;32.83;102015.28;5091677;28;19916;-67
2023/09/07 07:17:16;;;;;;;;;;;;;;;27.97;32.80;102016.19;5091598;28;19919;-67
2023/09/07 07:19:43;;;;;;;;;;;;;;;27.78;32.58;101959.75;5093182;28;19920;-67
2023/09/07 07:22:08;;;;;;;;;;;;;;;28.32;31.81;102009.00;5094723;28;19943;-68
2023/09/07 07:24:34;;;;;;;;;;;;;;;28.21;32.43;102006.53;5093663;28;19912;-68
2023/09/07 07:26:59;;;;;;;;;;;;;;;28.24;32.06;102000.47;5093103;28;20308;-68
2023/09/07 07:29:24;;;;;;;;;;;;;;;28.19;32.20;102009.56;5092236;28;19912;-67
2023/09/07 07:31:49;;;;;;;;;;;;;;;27.98;32.63;102006.78;5093709;28;19912;-67
2023/09/07 07:34:15;;;;;;;;;;;;;;;28.18;32.13;102005.16;5094841;28;19912;-67
2023/09/07 07:36:40;;;;;;;;;;;;;;;28.33;31.86;102007.91;5096184;28;19936;-67
2023/09/07 07:39:08;;;;;;;;;;;;;;;28.45;31.84;101999.34;5096238;28;20539;-67
2023/09/07 07:41:34;;;;;;;;;;;;;;;28.53;31.86;101998.81;5095551;28;19916;-66
2023/09/07 07:43:59;;;;;;;;;;;;;;;28.51;31.91;101991.88;5095835;28;20010;-67
2023/09/07 07:46:24;;;;;;;;;;;;;;;28.59;31.77;101985.81;5095546;28;19912;-67
2023/09/07 07:48:49;;;;;;;;;;;;;;;28.69;31.88;101985.78;5095649;28;19918;-67
2023/09/07 07:51:15;;;;;;;;;;;;;;;28.81;31.68;101988.28;5095541;28;19912;-67
2023/09/07 07:53:40;;;;;;;;;;;;;;;28.87;31.00;101995.44;5094880;28;20363;-67
2023/09/07 07:56:13;;;;;;;;;;;;;;;28.95;31.29;101996.81;5107947;28;19912;-67
2023/09/07 07:58:39;;;;;;;;;;;;;;;29.05;31.11;101993.19;5114243;28;20416;-67
2023/09/07 08:01:12;;;;;;;;;;;;;;;29.14;31.47;101991.53;5115640;28;20011;-67
2023/09/07 08:03:38;;;;;;;;;;;;;;;29.23;30.96;101987.06;5074800;28;20011;-68
2023/09/07 08:06:03;;;;;;;;;;;;;;;29.21;31.14;101991.22;5075138;28;20003;-67
2023/09/07 08:08:28;;;;;;;;;;;;;;;29.28;31.03;101989.81;5079180;28;20333;-67
2023/09/07 08:10:53;;;;;;;;;;;;;;;29.30;31.16;101986.75;5074859;28;19920;-67
2023/09/07 08:13:19;;;;;;;;;;;;;;;29.25;30.75;101989.53;5075087;28;20380;-67
2023/09/07 08:15:47;;;;;;;;;;;;;;;29.20;31.06;101982.09;5075131;28;19912;-67
2023/09/07 08:18:12;;;;;;;;;;;;;;;29.00;31.13;101991.28;5075005;28;19939;-67
2023/09/07 08:20:40;;;;;;;;;;;;;;;29.04;31.36;101986.81;5074469;28;20284;-67
2023/09/07 08:23:08;;;;;;;;;;;;;;;28.98;31.23;101990.72;5074682;28;20285;-67
2023/09/07 08:25:33;;;;;;;;;;;;;;;29.03;31.33;101992.63;5073873;28;20365;-67
2023/09/07 08:27:59;;;;;;;;;;;;;;;29.15;31.22;101991.25;5074650;28;20003;-67
2023/09/07 08:30:25;;;;;;;;;;;;;;;29.10;31.21;101991.25;5074288;28;20365;-67
2023/09/07 08:32:51;;;;;;;;;;;;;;;29.09;31.27;101986.00;5078912;28;19913;-67
2023/09/07 08:35:17;;;;;;;;;;;;;;;29.05;31.00;101985.72;5093280;28;19912;-67
2023/09/07 08:37:42;;;;;;;;;;;;;;;29.23;30.68;101989.00;5094293;28;20003;-67
2023/09/07 08:40:08;;;;;;;;;;;;;;;29.19;31.17;101993.44;5094808;28;19973;-68
2023/09/07 08:42:37;;;;;;;;;;;;;;;29.03;31.23;101984.34;5093947;28;19916;-67
2023/09/07 08:45:06;;;;;;;;;;;;;;;29.25;30.89;101993.16;5094206;28;19943;-67
2023/09/07 08:47:33;;;;;;;;;;;;;;;29.39;30.96;101998.09;5094590;28;19912;-68
2023/09/07 08:49:59;;;;;;;;;;;;;;;29.37;30.49;102003.91;5084041;28;19923;-68
2023/09/07 08:52:24;;;;;;;;;;;;;;;29.41;30.33;102002.22;5094430;28;19912;-68
2023/09/07 08:54:51;;;;;;;;;;;;;;;29.41;30.53;101995.84;5093755;28;19935;-67
2023/09/07 08:57:17;;;;;;;;;;;;;;;29.46;30.73;101982.00;5094273;28;20000;-67
2023/09/07 08:59:43;;;;;;;;;;;;;;;29.62;30.31;101989.09;5094517;28;19938;-67
2023/09/07 09:02:11;;;;;;;;;;;;;;;29.57;30.53;101993.81;5093814;28;20391;-66
2023/09/07 09:04:39;;;;;;;;;;;;;;;29.56;30.54;101997.72;5093756;28;20560;-67
2023/09/07 09:07:04;;;;;;;;;;;;;;;29.55;30.11;101991.38;5093992;28;20008;-67
2023/09/07 09:09:30;;;;;;;;;;;;;;;29.45;30.04;101991.41;5094255;28;20018;-67
2023/09/07 09:12:06;;;;;;;;;;;;;;;29.46;30.17;101999.44;5094156;28;19912;-67
2023/09/07 09:14:31;;;;;;;;;;;;;;;29.49;30.14;101993.34;5094149;28;19978;-67
2023/09/07 09:16:57;;;;;;;;;;;;;;;29.67;30.03;101989.06;5092639;28;19924;-67
2023/09/07 09:19:30;;;;;;;;;;;;;;;29.79;29.99;101980.47;5094054;28;20394;-67
2023/09/07 09:21:56;;;;;;;;;;;;;;;29.80;29.61;101984.03;5094100;28;20252;-67
2023/09/07 09:24:21;;;;;;;;;;;;;;;29.73;29.50;101995.41;5093976;28;19999;-67
2023/09/07 09:26:46;;;;;;;;;;;;;;;29.70;29.61;101996.00;5093716;28;20603;-67
2023/09/07 09:29:12;;;;;;;;;;;;;;;29.62;29.71;101991.03;5074498;28;20270;-67
2023/09/07 09:31:37;;;;;;;;;;;;;;;29.65;29.67;101985.75;5073476;28;20146;-67
2023/09/07 09:34:02;;;;;;;;;;;;;;;29.73;29.89;101987.09;5089589;28;19959;-67
2023/09/07 09:36:33;;;;;;;;;;;;;;;29.73;30.07;101984.31;5093582;28;20276;-67
2023/09/07 09:38:58;;;;;;;;;;;;;;;29.94;29.37;101986.97;5093573;28;20332;-67
2023/09/07 09:41:24;;;;;;;;;;;;;;;30.07;29.90;101987.19;5093629;28;20006;-67
2023/09/07 09:43:51;;;;;;;;;;;;;;;30.06;29.48;101979.16;5093375;28;20026;-67
2023/09/07 09:46:17;;;;;;;;;;;;;;;30.10;29.54;101991.31;5093481;28;19916;-67
2023/09/07 09:48:44;;;;;;;;;;;;;;;30.11;29.92;101977.16;5093537;28;19912;-67
2023/09/07 09:51:11;;;;;;;;;;;;;;;30.12;29.72;101980.75;5093533;28;19931;-67
2023/09/07 09:53:36;;;;;;;;;;;;;;;29.88;30.06;101977.88;5093313;28;19912;-67
2023/09/07 09:56:01;;;;;;;;;;;;;;;29.92;29.71;101978.97;5103580;28;19918;-67
2023/09/07 09:58:27;;;;;;;;;;;;;;;29.98;30.24;101977.81;5113526;28;19965;-67
2023/09/07 10:01:00;;;;;;;;;;;;;;;29.64;30.35;101972.19;5098022;28;19912;-67
2023/09/07 10:03:28;;;;;;;;;;;;;;;29.49;31.05;101970.34;5073465;28;19981;-67
2023/09/07 10:05:54;;;;;;;;;;;;;;;29.70;30.29;101966.34;5072929;28;19967;-67
2023/09/07 10:08:19;;;;;;;;;;;;;;;29.94;30.46;101968.44;5072622;28;19951;-66
2023/09/07 10:10:49;;;;;;;;;;;;;;;30.23;30.36;101978.72;5071374;28;19966;-66
2023/09/07 10:13:15;;;;;;;;;;;;;;;30.44;29.56;101968.31;5072794;28;19977;-66
2023/09/07 10:15:40;;;;;;;;;;;;;;;30.47;29.49;101963.00;5072576;28;20757;-66
2023/09/07 10:18:07;;;;;;;;;;;;;;;30.63;29.49;101960.91;5072394;28;20007;-67
2023/09/07 10:20:51;;;;;;;;;;;;;;;30.79;29.78;101964.34;5072749;28;20242;-67
2023/09/07 10:23:17;;;;;;;;;;;;;;;30.97;29.02;101960.00;5072541;28;19917;-67
2023/09/07 10:25:42;;;;;;;;;;;;;;;31.06;29.33;101963.78;5072402;28;19919;-67
2023/09/07 10:28:21;;;;;;;;;;;;;;;31.08;29.33;101957.94;5079598;28;20270;-67
2023/09/07 10:30:57;;;;;;;;;;;;;;;30.93;29.61;101963.69;5084580;28;19950;-67
2023/09/07 10:33:22;;;;;;;;;;;;;;;31.02;29.30;101956.38;5092112;28;19922;-67
2023/09/07 10:35:47;;;;;;;;;;;;;;;30.75;29.55;101951.38;5092673;28;19916;-67
2023/09/07 10:38:13;;;;;;;;;;;;;;;30.56;29.98;101951.31;5092108;28;19958;-67
2023/09/07 10:40:39;;;;;;;;;;;;;;;30.34;30.24;101947.06;5092066;28;19919;-68
2023/09/07 10:43:04;;;;;;;;;;;;;;;30.38;30.04;101948.13;5092191;28;19916;-67
2023/09/07 10:45:30;;;;;;;;;;;;;;;30.57;29.86;101951.00;5090995;28;20336;-67
2023/09/07 10:47:55;;;;;;;;;;;;;;;30.73;29.98;101961.94;5092704;28;19912;-67
2023/09/07 10:50:20;;;;;;;;;;;;;;;30.55;30.41;101955.19;5092373;28;19912;-67
2023/09/07 10:52:45;;;;;;;;;;;;;;;30.36;30.30;101957.88;5092339;28;19919;-67
2023/09/07 10:55:11;;;;;;;;;;;;;;;30.23;30.72;101956.56;5095957;28;19911;-68
2023/09/07 10:57:43;;;;;;;;;;;;;;;30.14;31.21;101967.44;5093495;28;19912;-68
2023/09/07 11:00:10;;;;;;;;;;;;;;;30.04;31.03;101953.69;5092173;28;19923;-67
2023/09/07 11:02:39;;;;;;;;;;;;;;;30.16;30.79;101950.53;5079852;28;20019;-67
2023/09/07 11:05:05;;;;;;;;;;;;;;;30.15;30.58;101943.34;5071931;28;19935;-67
2023/09/07 11:07:32;;;;;;;;;;;;;;;30.35;30.94;101942.34;5075115;28;19920;-67
2023/09/07 11:09:58;;;;;;;;;;;;;;;30.41;30.50;101946.75;5074843;28;19917;-67
2023/09/07 11:12:23;;;;;;;;;;;;;;;30.34;30.89;101954.56;5076555;28;19917;-67
2023/09/07 11:14:49;;;;;;;;;;;;;;;30.17;31.05;101957.72;5074795;28;20646;-67
2023/09/07 11:17:15;;;;;;;;;;;;;;;30.20;31.35;101952.44;5076400;28;19977;-67
2023/09/07 11:19:41;;;;;;;;;;;;;;;30.26;31.30;101940.19;5075943;28;20373;-67
2023/09/07 11:22:09;;;;;;;;;;;;;;;30.43;30.70;101955.59;5076005;28;19970;-68
2023/09/07 11:24:34;;;;;;;;;;;;;;;30.56;30.89;101942.97;5076185;28;19913;-67
2023/09/07 11:27:00;;;;;;;;;;;;;;;30.74;30.82;101944.16;5083047;28;20011;-67
2023/09/07 11:29:25;;;;;;;;;;;;;;;30.84;30.29;101944.06;5075818;28;19934;-67
2023/09/07 11:31:51;;;;;;;;;;;;;;;30.69;30.25;101937.56;5075937;28;19913;-67
2023/09/07 11:34:16;;;;;;;;;;;;;;;30.76;30.52;101928.88;5075844;28;19970;-67
2023/09/07 11:36:42;;;;;;;;;;;;;;;31.03;30.31;101930.25;5075780;28;20372;-67
2023/09/07 11:39:13;;;;;;;;;;;;;;;31.17;30.37;101928.41;5095347;28;19912;-67
2023/09/07 11:41:40;;;;;;;;;;;;;;;31.31;30.13;101936.00;5095634;28;19920;-67
2023/09/07 11:44:06;;;;;;;;;;;;;;;31.38;30.24;101931.72;5095770;28;19912;-67
2023/09/07 11:46:31;;;;;;;;;;;;;;;31.29;30.08;101932.69;5096008;28;20318;-67
2023/09/07 11:48:56;;;;;;;;;;;;;;;31.37;30.29;101927.31;5095670;28;19933;-68
2023/09/07 11:51:22;;;;;;;;;;;;;;;31.18;30.08;101932.00;5095655;28;19917;-67
2023/09/07 11:53:47;;;;;;;;;;;;;;;30.75;30.84;101931.94;5095212;28;20399;-68
2023/09/07 11:56:12;;;;;;;;;;;;;;;30.78;30.80;101939.69;5108846;28;19912;-67
2023/09/07 11:58:37;;;;;;;;;;;;;;;30.76;30.57;101933.59;5115917;28;20002;-68
2023/09/07 12:01:04;;;;;;;;;;;;;;;30.85;30.59;101913.25;5115761;28;19912;-67
2023/09/07 12:03:30;;;;;;;;;;;;;;;31.19;30.18;101915.06;5095561;28;19981;-67
2023/09/07 12:05:55;;;;;;;;;;;;;;;31.21;30.36;101923.09;5095438;28;19920;-67
2023/09/07 12:08:20;;;;;;;;;;;;;;;31.47;29.73;101911.63;5095320;28;19999;-67
2023/09/07 12:10:46;;;;;;;;;;;;;;;31.29;29.92;101919.63;5095265;28;20016;-67
2023/09/07 12:13:12;;;;;;;;;;;;;;;31.20;30.45;101929.75;5095369;28;19912;-67
2023/09/07 12:15:37;;;;;;;;;;;;;;;31.18;30.19;101920.91;5095380;28;20284;-67
2023/09/07 12:18:02;;;;;;;;;;;;;;;31.06;30.72;101911.06;5094414;28;19918;-68
2023/09/07 12:20:28;;;;;;;;;;;;;;;31.01;30.74;101913.09;5095062;28;19916;-68
2023/09/07 12:22:53;;;;;;;;;;;;;;;30.92;30.76;101917.63;5094894;28;20003;-67
2023/09/07 12:25:19;;;;;;;;;;;;;;;31.10;30.92;101907.69;5094960;28;19912;-67
2023/09/07 12:27:46;;;;;;;;;;;;;;;31.38;30.42;101915.06;5094983;28;19912;-67
2023/09/07 12:30:12;;;;;;;;;;;;;;;31.20;30.24;101913.94;5094885;28;19912;-67